sensor_id;sensor_type;location;lat;lon;timestamp;P1;durP1;ratioP1;P2;durP2;ratioP2
53875;SDS011;39789;53.216;5.624;2023-05-07T18:30:37;20.80;;;18.70;;
53875;SDS011;39789;53.216;5.624;2023-05-07T18:33:02;21.10;;;18.83;;
53875;SDS011;39789;53.216;5.624;2023-05-07T18:35:28;20.13;;;18.02;;
53875;SDS011;39789;53.216;5.624;2023-05-07T18:37:55;19.25;;;17.35;;
53875;SDS011;39789;53.216;5.624;2023-05-07T18:40:24;19.17;;;17.17;;
53875;SDS011;39789;53.216;5.624;2023-05-07T18:42:50;19.30;;;17.25;;
53875;SDS011;39789;53.216;5.624;2023-05-07T18:45:16;20.00;;;17.90;;
53875;SDS011;39789;53.216;5.624;2023-05-07T18:47:42;20.30;;;17.27;;
53875;SDS011;39789;53.216;5.624;2023-05-07T18:50:07;19.08;;;17.23;;
53875;SDS011;39789;53.216;5.624;2023-05-07T18:52:34;18.40;;;16.60;;
53875;SDS011;39789;53.216;5.624;2023-05-07T18:54:59;19.02;;;17.13;;
53875;SDS011;39789;53.216;5.624;2023-05-07T18:57:25;18.13;;;16.25;;
53875;SDS011;39789;53.216;5.624;2023-05-07T18:59:53;18.92;;;17.02;;
53875;SDS011;39789;53.216;5.624;2023-05-07T19:02:19;17.20;;;15.45;;
53875;SDS011;39789;53.216;5.624;2023-05-07T19:04:45;19.10;;;17.20;;
53875;SDS011;39789;53.216;5.624;2023-05-07T19:07:10;17.90;;;15.95;;
53875;SDS011;39789;53.216;5.624;2023-05-07T19:09:36;18.13;;;16.15;;
53875;SDS011;39789;53.216;5.624;2023-05-07T19:12:02;18.42;;;16.52;;
53875;SDS011;39789;53.216;5.624;2023-05-07T19:14:27;17.73;;;15.85;;
53875;SDS011;39789;53.216;5.624;2023-05-07T19:16:53;18.60;;;15.73;;
53875;SDS011;39789;53.216;5.624;2023-05-07T19:19:19;18.25;;;16.35;;
53875;SDS011;39789;53.216;5.624;2023-05-07T19:21:45;17.80;;;16.15;;
53875;SDS011;39789;53.216;5.624;2023-05-07T19:24:11;19.08;;;17.13;;
53875;SDS011;39789;53.216;5.624;2023-05-07T19:26:36;19.75;;;17.70;;
53875;SDS011;39789;53.216;5.624;2023-05-07T19:29:03;20.35;;;18.30;;
53875;SDS011;39789;53.216;5.624;2023-05-07T19:31:29;21.50;;;18.45;;
53875;SDS011;39789;53.216;5.624;2023-05-07T19:33:57;21.52;;;19.08;;
53875;SDS011;39789;53.216;5.624;2023-05-07T19:36:24;21.63;;;18.65;;
53875;SDS011;39789;53.216;5.624;2023-05-07T19:38:50;22.98;;;19.50;;
53875;SDS011;39789;53.216;5.624;2023-05-07T19:41:18;22.35;;;19.10;;
53875;SDS011;39789;53.216;5.624;2023-05-07T19:43:46;22.35;;;20.05;;
53875;SDS011;39789;53.216;5.624;2023-05-07T19:46:12;23.30;;;20.75;;
53875;SDS011;39789;53.216;5.624;2023-05-07T19:48:37;22.98;;;20.67;;
53875;SDS011;39789;53.216;5.624;2023-05-07T19:51:03;21.60;;;19.45;;
53875;SDS011;39789;53.216;5.624;2023-05-07T19:53:29;22.38;;;20.08;;
53875;SDS011;39789;53.216;5.624;2023-05-07T19:56:01;23.25;;;20.75;;
53875;SDS011;39789;53.216;5.624;2023-05-07T19:58:31;23.80;;;20.85;;
53875;SDS011;39789;53.216;5.624;2023-05-07T20:00:57;22.60;;;20.30;;
53875;SDS011;39789;53.216;5.624;2023-05-07T20:03:23;23.95;;;21.55;;
53875;SDS011;39789;53.216;5.624;2023-05-07T20:05:48;23.23;;;20.73;;
53875;SDS011;39789;53.216;5.624;2023-05-07T20:08:14;22.85;;;20.52;;
53875;SDS011;39789;53.216;5.624;2023-05-07T20:10:40;22.58;;;20.27;;
53875;SDS011;39789;53.216;5.624;2023-05-07T20:13:06;24.15;;;21.63;;
53875;SDS011;39789;53.216;5.624;2023-05-07T20:15:32;24.75;;;22.25;;
53875;SDS011;39789;53.216;5.624;2023-05-07T20:17:59;24.23;;;21.65;;
53875;SDS011;39789;53.216;5.624;2023-05-07T20:20:25;25.25;;;22.67;;
53875;SDS011;39789;53.216;5.624;2023-05-07T20:22:51;25.45;;;22.75;;
53875;SDS011;39789;53.216;5.624;2023-05-07T20:25:16;24.45;;;21.85;;
53875;SDS011;39789;53.216;5.624;2023-05-07T20:27:42;24.10;;;21.50;;
53875;SDS011;39789;53.216;5.624;2023-05-07T20:30:07;24.40;;;21.80;;
53875;SDS011;39789;53.216;5.624;2023-05-07T20:32:33;25.67;;;22.75;;
53875;SDS011;39789;53.216;5.624;2023-05-07T20:34:59;25.13;;;21.58;;
53875;SDS011;39789;53.216;5.624;2023-05-07T20:37:25;25.40;;;22.70;;
53875;SDS011;39789;53.216;5.624;2023-05-07T20:39:51;26.17;;;22.08;;
53875;SDS011;39789;53.216;5.624;2023-05-07T20:42:16;26.08;;;22.42;;
53875;SDS011;39789;53.216;5.624;2023-05-07T20:44:42;25.80;;;23.10;;
53875;SDS011;39789;53.216;5.624;2023-05-07T20:47:08;25.73;;;21.50;;
53875;SDS011;39789;53.216;5.624;2023-05-07T20:49:36;25.35;;;22.33;;
53875;SDS011;39789;53.216;5.624;2023-05-07T20:52:03;24.83;;;22.25;;
53875;SDS011;39789;53.216;5.624;2023-05-07T20:54:29;24.60;;;21.77;;
53875;SDS011;39789;53.216;5.624;2023-05-07T20:56:55;25.30;;;22.67;;
53875;SDS011;39789;53.216;5.624;2023-05-07T20:59:22;27.75;;;22.95;;
53875;SDS011;39789;53.216;5.624;2023-05-07T21:01:48;24.20;;;21.70;;
53875;SDS011;39789;53.216;5.624;2023-05-07T21:04:14;24.30;;;21.75;;
53875;SDS011;39789;53.216;5.624;2023-05-07T21:06:39;26.55;;;22.63;;
53875;SDS011;39789;53.216;5.624;2023-05-07T21:09:05;25.30;;;22.70;;
53875;SDS011;39789;53.216;5.624;2023-05-07T21:11:31;24.42;;;21.67;;
53875;SDS011;39789;53.216;5.624;2023-05-07T21:13:57;24.73;;;21.88;;
53875;SDS011;39789;53.216;5.624;2023-05-07T21:16:23;25.27;;;22.40;;
53875;SDS011;39789;53.216;5.624;2023-05-07T21:18:48;24.38;;;21.77;;
53875;SDS011;39789;53.216;5.624;2023-05-07T21:21:14;23.73;;;21.23;;
53875;SDS011;39789;53.216;5.624;2023-05-07T21:23:42;24.73;;;21.48;;
53875;SDS011;39789;53.216;5.624;2023-05-07T21:26:08;25.05;;;21.15;;
53875;SDS011;39789;53.216;5.624;2023-05-07T21:28:34;23.73;;;21.15;;
53875;SDS011;39789;53.216;5.624;2023-05-07T21:31:00;23.23;;;20.83;;
53875;SDS011;39789;53.216;5.624;2023-05-07T21:33:25;23.80;;;20.52;;
53875;SDS011;39789;53.216;5.624;2023-05-07T21:35:51;25.42;;;21.73;;
53875;SDS011;39789;53.216;5.624;2023-05-07T21:38:16;24.45;;;21.83;;
53875;SDS011;39789;53.216;5.624;2023-05-07T21:40:42;22.77;;;20.38;;
53875;SDS011;39789;53.216;5.624;2023-05-07T21:43:08;23.35;;;20.83;;
53875;SDS011;39789;53.216;5.624;2023-05-07T21:45:34;23.02;;;20.63;;
53875;SDS011;39789;53.216;5.624;2023-05-07T21:48:00;26.35;;;22.65;;
53875;SDS011;39789;53.216;5.624;2023-05-07T21:50:25;24.67;;;22.02;;
53875;SDS011;39789;53.216;5.624;2023-05-07T21:52:51;22.92;;;20.42;;
53875;SDS011;39789;53.216;5.624;2023-05-07T21:55:17;23.75;;;21.25;;
53875;SDS011;39789;53.216;5.624;2023-05-07T21:57:43;26.27;;;21.48;;
53875;SDS011;39789;53.216;5.624;2023-05-07T22:00:08;24.08;;;21.58;;
53875;SDS011;39789;53.216;5.624;2023-05-07T22:02:34;24.45;;;21.80;;
53875;SDS011;39789;53.216;5.624;2023-05-07T22:05:00;24.85;;;21.58;;
53875;SDS011;39789;53.216;5.624;2023-05-07T22:07:26;25.55;;;22.60;;
53875;SDS011;39789;53.216;5.624;2023-05-07T22:09:51;23.77;;;21.17;;
53875;SDS011;39789;53.216;5.624;2023-05-07T22:12:17;22.27;;;19.88;;
53875;SDS011;39789;53.216;5.624;2023-05-07T22:14:42;23.52;;;21.00;;
53875;SDS011;39789;53.216;5.624;2023-05-07T22:17:08;22.30;;;19.90;;
53875;SDS011;39789;53.216;5.624;2023-05-07T22:19:33;21.25;;;19.05;;
53875;SDS011;39789;53.216;5.624;2023-05-07T22:21:59;22.05;;;18.23;;
53875;SDS011;39789;53.216;5.624;2023-05-07T22:24:25;24.38;;;19.90;;
53875;SDS011;39789;53.216;5.624;2023-05-07T22:26:50;21.00;;;18.77;;
53875;SDS011;39789;53.216;5.624;2023-05-07T22:29:16;20.58;;;18.45;;
53875;SDS011;39789;53.216;5.624;2023-05-07T22:31:42;21.45;;;19.15;;
53875;SDS011;39789;53.216;5.624;2023-05-07T22:34:07;19.70;;;17.60;;
53875;SDS011;39789;53.216;5.624;2023-05-07T22:36:33;20.90;;;17.98;;
53875;SDS011;39789;53.216;5.624;2023-05-07T22:38:58;19.90;;;17.80;;
53875;SDS011;39789;53.216;5.624;2023-05-07T22:41:25;19.42;;;17.25;;
53875;SDS011;39789;53.216;5.624;2023-05-07T22:43:50;20.67;;;18.45;;
53875;SDS011;39789;53.216;5.624;2023-05-07T22:46:16;20.27;;;18.08;;
53875;SDS011;39789;53.216;5.624;2023-05-07T23:36:24;19.83;;;17.60;;
53875;SDS011;39789;53.216;5.624;2023-05-07T23:38:50;19.73;;;17.60;;
53875;SDS011;39789;53.216;5.624;2023-05-07T23:41:15;19.85;;;17.75;;
53875;SDS011;39789;53.216;5.624;2023-05-07T23:43:41;19.63;;;17.65;;
53875;SDS011;39789;53.216;5.624;2023-05-07T23:46:06;21.60;;;18.65;;
53875;SDS011;39789;53.216;5.624;2023-05-07T23:48:32;19.85;;;17.77;;
53875;SDS011;39789;53.216;5.624;2023-05-07T23:50:57;21.48;;;19.13;;
53875;SDS011;39789;53.216;5.624;2023-05-07T23:53:23;21.17;;;19.08;;
53875;SDS011;39789;53.216;5.624;2023-05-07T23:55:49;20.10;;;17.88;;
53875;SDS011;39789;53.216;5.624;2023-05-07T23:58:14;21.38;;;19.08;;
